sensor_id;sensor_type;location;lat;lon;timestamp;pressure;altitude;pressure_sealevel;temperature;humidity
13015;BME280;6573;57.696;11.950;2023-01-29T00:00:11;101556.34;;;7.57;100.00
13015;BME280;6573;57.696;11.950;2023-01-29T00:02:40;101571.47;;;7.68;100.00
13015;BME280;6573;57.696;11.950;2023-01-29T00:05:09;101541.44;;;7.51;100.00
13015;BME280;6573;57.696;11.950;2023-01-29T00:07:52;101571.53;;;7.71;100.00
13015;BME280;6573;57.696;11.950;2023-01-29T00:10:22;101518.53;;;7.41;100.00
13015;BME280;6573;57.696;11.950;2023-01-29T00:12:50;101520.75;;;7.25;100.00
13015;BME280;6573;57.696;11.950;2023-01-29T00:15:18;101562.41;;;7.54;100.00
13015;BME280;6573;57.696;11.950;2023-01-29T00:17:47;101572.13;;;7.60;100.00
13015;BME280;6573;57.696;11.950;2023-01-29T00:20:16;101575.00;;;7.70;100.00
13015;BME280;6573;57.696;11.950;2023-01-29T00:22:45;101535.31;;;7.52;100.00
13015;BME280;6573;57.696;11.950;2023-01-29T00:25:13;101532.91;;;7.61;100.00
13015;BME280;6573;57.696;11.950;2023-01-29T00:27:43;101527.53;;;7.55;100.00
13015;BME280;6573;57.696;11.950;2023-01-29T00:30:12;101533.09;;;7.70;100.00
13015;BME280;6573;57.696;11.950;2023-01-29T00:32:45;101541.84;;;7.72;100.00
13015;BME280;6573;57.696;11.950;2023-01-29T00:35:14;101548.66;;;7.64;100.00
13015;BME280;6573;57.696;11.950;2023-01-29T00:37:42;101545.19;;;7.65;100.00
13015;BME280;6573;57.696;11.950;2023-01-29T00:40:11;101537.19;;;7.58;100.00
13015;BME280;6573;57.696;11.950;2023-01-29T00:42:39;101529.31;;;7.56;100.00
13015;BME280;6573;57.696;11.950;2023-01-29T00:45:26;101523.22;;;7.57;100.00
13015;BME280;6573;57.696;11.950;2023-01-29T00:47:55;101536.53;;;7.69;100.00
13015;BME280;6573;57.696;11.950;2023-01-29T00:50:23;101540.16;;;7.74;100.00
13015;BME280;6573;57.696;11.950;2023-01-29T00:52:52;101520.91;;;7.72;100.00
13015;BME280;6573;57.696;11.950;2023-01-29T00:55:20;101527.78;;;7.67;100.00
13015;BME280;6573;57.696;11.950;2023-01-29T00:57:48;101532.94;;;7.64;100.00
13015;BME280;6573;57.696;11.950;2023-01-29T01:00:18;101531.38;;;7.72;100.00
13015;BME280;6573;57.696;11.950;2023-01-29T01:02:47;101522.78;;;7.79;100.00
13015;BME280;6573;57.696;11.950;2023-01-29T01:05:33;101522.63;;;7.70;100.00
13015;BME280;6573;57.696;11.950;2023-01-29T01:08:03;101468.00;;;7.45;100.00
13015;BME280;6573;57.696;11.950;2023-01-29T01:11:01;101519.19;;;7.74;100.00
13015;BME280;6573;57.696;11.950;2023-01-29T01:13:28;101513.84;;;7.68;100.00
13015;BME280;6573;57.696;11.950;2023-01-29T01:15:58;101521.78;;;7.73;100.00
13015;BME280;6573;57.696;11.950;2023-01-29T01:18:30;101494.53;;;7.63;100.00
13015;BME280;6573;57.696;11.950;2023-01-29T01:20:58;101513.91;;;7.71;100.00
13015;BME280;6573;57.696;11.950;2023-01-29T01:23:26;101489.06;;;7.51;100.00
13015;BME280;6573;57.696;11.950;2023-01-29T01:25:55;101503.22;;;7.61;100.00
13015;BME280;6573;57.696;11.950;2023-01-29T01:28:24;101512.22;;;7.73;100.00
13015;BME280;6573;57.696;11.950;2023-01-29T01:30:52;101470.06;;;7.61;100.00
13015;BME280;6573;57.696;11.950;2023-01-29T01:33:20;101507.06;;;7.79;100.00
13015;BME280;6573;57.696;11.950;2023-01-29T01:35:50;101475.25;;;7.58;100.00
13015;BME280;6573;57.696;11.950;2023-01-29T01:38:18;101459.34;;;7.49;100.00
13015;BME280;6573;57.696;11.950;2023-01-29T01:40:50;101493.13;;;7.80;100.00
13015;BME280;6573;57.696;11.950;2023-01-29T01:43:18;101486.69;;;7.63;100.00
13015;BME280;6573;57.696;11.950;2023-01-29T01:45:46;101485.81;;;7.63;100.00
13015;BME280;6573;57.696;11.950;2023-01-29T01:48:17;101510.66;;;7.84;100.00
13015;BME280;6573;57.696;11.950;2023-01-29T01:50:51;101512.38;;;7.82;100.00
13015;BME280;6573;57.696;11.950;2023-01-29T01:53:24;101507.38;;;7.95;100.00
13015;BME280;6573;57.696;11.950;2023-01-29T01:55:55;101459.63;;;7.64;100.00
13015;BME280;6573;57.696;11.950;2023-01-29T01:58:29;101483.63;;;7.86;100.00
13015;BME280;6573;57.696;11.950;2023-01-29T02:00:58;101464.34;;;7.82;100.00
13015;BME280;6573;57.696;11.950;2023-01-29T02:03:33;101463.41;;;7.78;100.00
13015;BME280;6573;57.696;11.950;2023-01-29T02:06:22;101461.78;;;7.83;100.00
13015;BME280;6573;57.696;11.950;2023-01-29T02:09:12;101452.81;;;7.72;100.00
13015;BME280;6573;57.696;11.950;2023-01-29T02:11:58;101452.88;;;7.75;100.00
13015;BME280;6573;57.696;11.950;2023-01-29T02:14:27;101426.47;;;7.63;100.00
13015;BME280;6573;57.696;11.950;2023-01-29T02:17:00;101448.53;;;7.77;100.00
13015;BME280;6573;57.696;11.950;2023-01-29T02:19:40;101403.53;;;7.50;100.00
13015;BME280;6573;57.696;11.950;2023-01-29T02:22:25;101446.91;;;7.84;100.00
13015;BME280;6573;57.696;11.950;2023-01-29T02:25:22;101446.00;;;7.80;100.00
13015;BME280;6573;57.696;11.950;2023-01-29T02:30:56;101438.28;;;7.90;100.00
13015;BME280;6573;57.696;11.950;2023-01-29T02:33:34;101453.38;;;8.03;100.00
13015;BME280;6573;57.696;11.950;2023-01-29T02:36:13;101453.44;;;8.06;100.00
13015;BME280;6573;57.696;11.950;2023-01-29T02:38:52;101402.50;;;7.89;100.00
13015;BME280;6573;57.696;11.950;2023-01-29T02:41:28;101411.41;;;8.00;100.00
13015;BME280;6573;57.696;11.950;2023-01-29T02:44:04;101421.94;;;8.03;100.00
13015;BME280;6573;57.696;11.950;2023-01-29T02:46:36;101402.78;;;8.07;100.00
13015;BME280;6573;57.696;11.950;2023-01-29T02:49:12;101415.13;;;8.14;100.00
13015;BME280;6573;57.696;11.950;2023-01-29T02:51:49;101422.06;;;8.12;100.00
13015;BME280;6573;57.696;11.950;2023-01-29T02:54:21;101402.91;;;8.13;100.00
13015;BME280;6573;57.696;11.950;2023-01-29T02:56:55;101377.97;;;7.87;100.00
13015;BME280;6573;57.696;11.950;2023-01-29T02:59:31;101406.34;;;8.10;100.00
13015;BME280;6573;57.696;11.950;2023-01-29T03:02:05;101397.72;;;8.16;100.00
13015;BME280;6573;57.696;11.950;2023-01-29T03:04:39;101394.22;;;8.17;100.00
13015;BME280;6573;57.696;11.950;2023-01-29T03:07:16;101390.75;;;8.18;100.00
13015;BME280;6573;57.696;11.950;2023-01-29T03:10:12;101387.25;;;8.19;100.00
13015;BME280;6573;57.696;11.950;2023-01-29T03:12:46;101390.81;;;8.21;100.00
13015;BME280;6573;57.696;11.950;2023-01-29T03:15:20;101399.56;;;8.23;100.00
13015;BME280;6573;57.696;11.950;2023-01-29T03:17:53;101379.25;;;8.10;100.00
13015;BME280;6573;57.696;11.950;2023-01-29T03:20:28;101385.69;;;8.27;100.00
13015;BME280;6573;57.696;11.950;2023-01-29T03:23:02;101382.06;;;8.22;100.00
13015;BME280;6573;57.696;11.950;2023-01-29T03:25:33;101389.09;;;8.23;100.00
13015;BME280;6573;57.696;11.950;2023-01-29T03:28:21;101389.03;;;8.20;100.00
13015;BME280;6573;57.696;11.950;2023-01-29T03:31:11;101349.34;;;7.96;100.00
13015;BME280;6573;57.696;11.950;2023-01-29T03:34:00;101372.22;;;8.07;100.00
13015;BME280;6573;57.696;11.950;2023-01-29T03:36:33;101401.22;;;8.18;100.00
13015;BME280;6573;57.696;11.950;2023-01-29T03:39:07;101368.13;;;8.23;100.00
13015;BME280;6573;57.696;11.950;2023-01-29T03:41:40;101353.44;;;8.34;100.00
13015;BME280;6573;57.696;11.950;2023-01-29T03:44:16;101313.81;;;8.13;100.00
13015;BME280;6573;57.696;11.950;2023-01-29T03:46:54;101363.09;;;8.35;100.00
13015;BME280;6573;57.696;11.950;2023-01-29T03:49:31;101357.38;;;8.08;100.00
13015;BME280;6573;57.696;11.950;2023-01-29T03:52:12;101345.38;;;8.22;100.00
13015;BME280;6573;57.696;11.950;2023-01-29T03:54:50;101332.31;;;8.25;100.00
13015;BME280;6573;57.696;11.950;2023-01-29T03:57:27;101347.31;;;8.32;100.00
13015;BME280;6573;57.696;11.950;2023-01-29T04:00:02;101346.63;;;8.45;100.00
13015;BME280;6573;57.696;11.950;2023-01-29T04:02:41;101345.59;;;8.34;100.00
13015;BME280;6573;57.696;11.950;2023-01-29T04:05:13;101335.97;;;8.33;100.00
13015;BME280;6573;57.696;11.950;2023-01-29T04:07:44;101342.25;;;8.44;100.00
13015;BME280;6573;57.696;11.950;2023-01-29T04:10:15;101325.81;;;8.56;100.00
13015;BME280;6573;57.696;11.950;2023-01-29T04:12:49;101324.88;;;8.52;100.00
13015;BME280;6573;57.696;11.950;2023-01-29T04:15:19;101317.91;;;8.54;100.00
13015;BME280;6573;57.696;11.950;2023-01-29T04:17:51;101319.63;;;8.51;100.00
13015;BME280;6573;57.696;11.950;2023-01-29T04:20:20;101317.63;;;8.33;100.00
13015;BME280;6573;57.696;11.950;2023-01-29T04:22:50;101315.81;;;8.29;100.00
13015;BME280;6573;57.696;11.950;2023-01-29T04:25:22;101308.81;;;8.28;100.00
13015;BME280;6573;57.696;11.950;2023-01-29T04:28:02;101318.84;;;8.01;100.00
13015;BME280;6573;57.696;11.950;2023-01-29T04:30:40;101322.38;;;8.03;100.00
13015;BME280;6573;57.696;11.950;2023-01-29T04:33:21;101253.19;;;7.89;100.00
13015;BME280;6573;57.696;11.950;2023-01-29T04:36:06;101301.69;;;8.21;100.00
13015;BME280;6573;57.696;11.950;2023-01-29T04:38:46;101319.22;;;8.25;100.00
13015;BME280;6573;57.696;11.950;2023-01-29T04:41:24;101305.22;;;8.23;100.00
13015;BME280;6573;57.696;11.950;2023-01-29T04:43:58;101288.38;;;8.09;100.00
13015;BME280;6573;57.696;11.950;2023-01-29T04:46:34;101294.16;;;8.42;100.00
13015;BME280;6573;57.696;11.950;2023-01-29T04:49:16;101300.28;;;8.44;100.00
13015;BME280;6573;57.696;11.950;2023-01-29T04:51:53;101306.44;;;8.46;100.00
13015;BME280;6573;57.696;11.950;2023-01-29T04:54:33;101247.47;;;8.17;100.00
13015;BME280;6573;57.696;11.950;2023-01-29T04:57:08;101279.41;;;8.50;100.00
13015;BME280;6573;57.696;11.950;2023-01-29T04:59:42;101256.63;;;8.46;100.00
13015;BME280;6573;57.696;11.950;2023-01-29T05:02:12;101233.72;;;8.30;100.00
13015;BME280;6573;57.696;11.950;2023-01-29T05:04:43;101266.44;;;8.61;100.00
13015;BME280;6573;57.696;11.950;2023-01-29T05:07:13;101262.19;;;8.70;100.00
13015;BME280;6573;57.696;11.950;2023-01-29T05:09:44;101237.50;;;8.53;100.00
13015;BME280;6573;57.696;11.950;2023-01-29T05:12:14;101241.88;;;8.54;100.00
13015;BME280;6573;57.696;11.950;2023-01-29T05:14:45;101220.78;;;8.45;100.00
13015;BME280;6573;57.696;11.950;2023-01-29T05:17:16;101227.03;;;8.53;100.00
13015;BME280;6573;57.696;11.950;2023-01-29T05:19:46;101176.13;;;8.36;100.00
13015;BME280;6573;57.696;11.950;2023-01-29T05:22:16;101236.72;;;8.60;100.00
13015;BME280;6573;57.696;11.950;2023-01-29T05:24:48;101236.75;;;8.65;100.00
13015;BME280;6573;57.696;11.950;2023-01-29T05:27:19;101212.13;;;8.52;100.00
13015;BME280;6573;57.696;11.950;2023-01-29T05:30:06;101236.59;;;8.51;100.00
13015;BME280;6573;57.696;11.950;2023-01-29T05:32:34;101225.25;;;8.52;100.00
13015;BME280;6573;57.696;11.950;2023-01-29T05:35:05;101189.19;;;8.33;100.00
13015;BME280;6573;57.696;11.950;2023-01-29T05:37:33;101217.38;;;8.54;100.00
13015;BME280;6573;57.696;11.950;2023-01-29T05:40:02;101223.50;;;8.54;100.00
13015;BME280;6573;57.696;11.950;2023-01-29T05:42:31;101225.09;;;8.40;100.00
13015;BME280;6573;57.696;11.950;2023-01-29T05:44:59;101211.84;;;8.29;100.00
13015;BME280;6573;57.696;11.950;2023-01-29T05:47:28;101228.56;;;8.39;100.00
13015;BME280;6573;57.696;11.950;2023-01-29T05:49:56;101179.34;;;8.17;100.00
13015;BME280;6573;57.696;11.950;2023-01-29T05:52:29;101199.72;;;8.39;100.00
13015;BME280;6573;57.696;11.950;2023-01-29T05:54:57;101206.00;;;8.50;100.00
13015;BME280;6573;57.696;11.950;2023-01-29T05:57:25;101202.41;;;8.42;100.00
13015;BME280;6573;57.696;11.950;2023-01-29T05:59:53;101155.97;;;8.32;100.00
13015;BME280;6573;57.696;11.950;2023-01-29T06:02:22;101174.00;;;8.08;100.00
13015;BME280;6573;57.696;11.950;2023-01-29T06:04:50;101173.34;;;8.25;100.00
13015;BME280;6573;57.696;11.950;2023-01-29T06:07:18;101172.38;;;8.19;100.00
13015;BME280;6573;57.696;11.950;2023-01-29T06:09:48;101179.34;;;8.17;100.00
13015;BME280;6573;57.696;11.950;2023-01-29T06:12:16;101100.28;;;7.80;100.00
13015;BME280;6573;57.696;11.950;2023-01-29T06:14:44;101146.16;;;8.16;100.00
13015;BME280;6573;57.696;11.950;2023-01-29T06:17:13;101151.75;;;8.43;100.00
13015;BME280;6573;57.696;11.950;2023-01-29T06:19:42;101174.59;;;8.53;100.00
13015;BME280;6573;57.696;11.950;2023-01-29T06:22:11;101126.09;;;8.19;100.00
13015;BME280;6573;57.696;11.950;2023-01-29T06:24:39;101155.28;;;8.48;100.00
13015;BME280;6573;57.696;11.950;2023-01-29T06:27:08;101149.91;;;8.36;100.00
13015;BME280;6573;57.696;11.950;2023-01-29T06:29:38;101195.56;;;8.53;100.00
13015;BME280;6573;57.696;11.950;2023-01-29T06:32:09;101182.28;;;8.39;100.00
13015;BME280;6573;57.696;11.950;2023-01-29T06:34:37;101183.16;;;8.40;100.00
13015;BME280;6573;57.696;11.950;2023-01-29T06:37:06;101191.97;;;8.45;100.00
13015;BME280;6573;57.696;11.950;2023-01-29T06:39:34;101202.50;;;8.51;100.00
13015;BME280;6573;57.696;11.950;2023-01-29T06:42:03;101153.91;;;8.08;100.00
13015;BME280;6573;57.696;11.950;2023-01-29T06:44:33;101151.44;;;8.22;100.00
13015;BME280;6573;57.696;11.950;2023-01-29T06:47:02;101193.88;;;8.58;100.00
13015;BME280;6573;57.696;11.950;2023-01-29T06:49:30;101178.22;;;8.67;100.00
13015;BME280;6573;57.696;11.950;2023-01-29T06:51:58;101170.19;;;8.54;100.00
13015;BME280;6573;57.696;11.950;2023-01-29T06:54:26;101166.81;;;8.62;100.00
13015;BME280;6573;57.696;11.950;2023-01-29T06:56:55;101136.03;;;8.46;100.00
13015;BME280;6573;57.696;11.950;2023-01-29T06:59:24;101130.84;;;8.52;100.00
13015;BME280;6573;57.696;11.950;2023-01-29T07:01:53;101149.28;;;8.60;100.00
13015;BME280;6573;57.696;11.950;2023-01-29T07:04:22;101129.94;;;8.48;100.00
13015;BME280;6573;57.696;11.950;2023-01-29T07:06:50;101123.84;;;8.51;100.00
13015;BME280;6573;57.696;11.950;2023-01-29T07:09:22;101127.38;;;8.53;100.00
13015;BME280;6573;57.696;11.950;2023-01-29T07:11:50;101127.34;;;8.50;100.00
13015;BME280;6573;57.696;11.950;2023-01-29T07:14:18;101076.44;;;8.30;100.00
13015;BME280;6573;57.696;11.950;2023-01-29T07:16:46;101102.03;;;8.54;100.00
13015;BME280;6573;57.696;11.950;2023-01-29T07:19:16;101073.09;;;8.43;100.00
13015;BME280;6573;57.696;11.950;2023-01-29T07:21:44;101123.00;;;8.51;100.00
13015;BME280;6573;57.696;11.950;2023-01-29T07:24:12;101069.41;;;8.26;100.00
13015;BME280;6573;57.696;11.950;2023-01-29T07:26:41;101115.13;;;8.52;100.00
13015;BME280;6573;57.696;11.950;2023-01-29T07:29:12;101101.91;;;8.40;100.00
13015;BME280;6573;57.696;11.950;2023-01-29T07:31:40;101110.72;;;8.48;100.00
13015;BME280;6573;57.696;11.950;2023-01-29T07:34:09;101101.09;;;8.47;100.00
13015;BME280;6573;57.696;11.950;2023-01-29T07:36:38;101088.81;;;8.43;100.00
13015;BME280;6573;57.696;11.950;2023-01-29T07:39:07;101080.63;;;8.16;100.00
13015;BME280;6573;57.696;11.950;2023-01-29T07:41:35;101090.19;;;8.11;100.00
13015;BME280;6573;57.696;11.950;2023-01-29T07:44:04;101082.47;;;8.23;100.00
13015;BME280;6573;57.696;11.950;2023-01-29T07:46:32;101076.34;;;8.24;100.00
13015;BME280;6573;57.696;11.950;2023-01-29T07:49:00;101040.50;;;8.21;100.00
13015;BME280;6573;57.696;11.950;2023-01-29T07:51:28;101076.44;;;8.30;100.00
13015;BME280;6573;57.696;11.950;2023-01-29T07:53:58;101058.00;;;8.22;100.00
13015;BME280;6573;57.696;11.950;2023-01-29T07:56:29;101044.84;;;8.18;100.00
13015;BME280;6573;57.696;11.950;2023-01-29T07:58:57;101058.78;;;8.17;100.00
13015;BME280;6573;57.696;11.950;2023-01-29T08:01:25;101071.28;;;8.36;100.00
13015;BME280;6573;57.696;11.950;2023-01-29T08:03:54;101068.59;;;8.31;100.00
13015;BME280;6573;57.696;11.950;2023-01-29T08:06:22;101069.31;;;8.20;100.00
13015;BME280;6573;57.696;11.950;2023-01-29T08:08:51;101069.09;;;7.99;100.00
13015;BME280;6573;57.696;11.950;2023-01-29T08:11:23;101076.44;;;8.30;100.00
13015;BME280;6573;57.696;11.950;2023-01-29T08:13:51;101053.63;;;8.23;100.00
13015;BME280;6573;57.696;11.950;2023-01-29T08:16:20;101059.06;;;8.38;100.00
13015;BME280;6573;57.696;11.950;2023-01-29T08:18:48;101071.31;;;8.42;100.00
13015;BME280;6573;57.696;11.950;2023-01-29T08:21:17;101066.13;;;8.45;100.00
13015;BME280;6573;57.696;11.950;2023-01-29T08:23:45;101025.66;;;8.22;100.00
13015;BME280;6573;57.696;11.950;2023-01-29T08:26:16;101053.00;;;8.45;100.00
13015;BME280;6573;57.696;11.950;2023-01-29T08:28:46;101058.22;;;8.40;100.00
13015;BME280;6573;57.696;11.950;2023-01-29T08:31:15;101060.59;;;8.24;100.00
13015;BME280;6573;57.696;11.950;2023-01-29T08:33:44;100981.56;;;7.81;100.00
13015;BME280;6573;57.696;11.950;2023-01-29T08:36:12;101050.00;;;8.12;100.00
13015;BME280;6573;57.696;11.950;2023-01-29T08:38:40;101036.09;;;8.19;100.00
13015;BME280;6573;57.696;11.950;2023-01-29T08:41:08;101027.34;;;8.17;100.00
13015;BME280;6573;57.696;11.950;2023-01-29T08:43:36;101036.31;;;8.37;100.00
13015;BME280;6573;57.696;11.950;2023-01-29T08:46:07;101018.75;;;8.27;100.00
13015;BME280;6573;57.696;11.950;2023-01-29T08:48:35;101046.66;;;8.25;100.00
13015;BME280;6573;57.696;11.950;2023-01-29T08:51:03;101048.34;;;8.20;100.00
13015;BME280;6573;57.696;11.950;2023-01-29T08:53:32;101037.72;;;8.05;100.00
13015;BME280;6573;57.696;11.950;2023-01-29T08:56:00;101054.31;;;8.04;100.00
13015;BME280;6573;57.696;11.950;2023-01-29T08:58:28;101041.63;;;7.66;100.00
13015;BME280;6573;57.696;11.950;2023-01-29T09:01:06;101051.53;;;7.92;100.00
13015;BME280;6573;57.696;11.950;2023-01-29T09:03:34;101044.50;;;7.88;100.00
13015;BME280;6573;57.696;11.950;2023-01-29T09:06:03;101056.94;;;8.05;100.00
13015;BME280;6573;57.696;11.950;2023-01-29T09:08:31;101041.22;;;8.04;100.00
13015;BME280;6573;57.696;11.950;2023-01-29T09:11:02;101069.31;;;8.20;100.00
13015;BME280;6573;57.696;11.950;2023-01-29T09:13:37;101026.88;;;7.71;100.00
13015;BME280;6573;57.696;11.950;2023-01-29T09:16:07;101060.53;;;8.15;100.00
13015;BME280;6573;57.696;11.950;2023-01-29T09:18:44;101070.31;;;8.29;100.00
13015;BME280;6573;57.696;11.950;2023-01-29T09:21:12;101070.91;;;8.09;100.00
13015;BME280;6573;57.696;11.950;2023-01-29T09:23:53;101087.47;;;8.05;100.00
13015;BME280;6573;57.696;11.950;2023-01-29T09:26:36;101072.56;;;7.98;100.00
13015;BME280;6573;57.696;11.950;2023-01-29T09:29:08;101071.94;;;8.21;100.00
13015;BME280;6573;57.696;11.950;2023-01-29T09:31:42;101047.38;;;8.12;100.00
13015;BME280;6573;57.696;11.950;2023-01-29T09:34:10;101067.69;;;8.28;100.00
13015;BME280;6573;57.696;11.950;2023-01-29T09:36:38;101069.22;;;8.14;100.00
13015;BME280;6573;57.696;11.950;2023-01-29T09:39:08;101053.44;;;8.05;100.00
13015;BME280;6573;57.696;11.950;2023-01-29T09:41:49;101062.50;;;8.31;100.00
13015;BME280;6573;57.696;11.950;2023-01-29T09:44:25;101057.34;;;8.40;100.00
13015;BME280;6573;57.696;11.950;2023-01-29T09:46:57;101059.06;;;8.41;100.00
13015;BME280;6573;57.696;11.950;2023-01-29T09:49:34;101064.00;;;8.11;100.00
13015;BME280;6573;57.696;11.950;2023-01-29T09:52:09;101046.66;;;8.25;100.00
13015;BME280;6573;57.696;11.950;2023-01-29T09:54:48;101047.63;;;8.30;100.00
13015;BME280;6573;57.696;11.950;2023-01-29T09:57:44;101034.38;;;8.18;100.00
13015;BME280;6573;57.696;11.950;2023-01-29T10:00:14;101006.44;;;8.20;100.00
13015;BME280;6573;57.696;11.950;2023-01-29T10:02:59;101020.56;;;8.34;100.00
13015;BME280;6573;57.696;11.950;2023-01-29T10:05:42;101018.81;;;8.33;100.00
13015;BME280;6573;57.696;11.950;2023-01-29T10:11:26;101006.38;;;8.17;100.00
13015;BME280;6573;57.696;11.950;2023-01-29T10:14:05;101020.59;;;8.37;100.00
13015;BME280;6573;57.696;11.950;2023-01-29T10:16:46;100984.72;;;8.31;100.00
13015;BME280;6573;57.696;11.950;2023-01-29T10:19:53;101002.22;;;8.32;100.00
13015;BME280;6573;57.696;11.950;2023-01-29T10:22:43;101011.75;;;8.26;100.00
13015;BME280;6573;57.696;11.950;2023-01-29T10:25:17;101003.22;;;8.45;100.00
13015;BME280;6573;57.696;11.950;2023-01-29T10:27:48;100955.66;;;8.06;100.00
13015;BME280;6573;57.696;11.950;2023-01-29T10:30:26;100964.50;;;8.20;100.00
13015;BME280;6573;57.696;11.950;2023-01-29T10:33:00;100978.72;;;8.43;100.00
13015;BME280;6573;57.696;11.950;2023-01-29T10:35:33;100963.94;;;8.53;100.00
13015;BME280;6573;57.696;11.950;2023-01-29T10:38:18;100970.06;;;8.56;100.00
13015;BME280;6573;57.696;11.950;2023-01-29T10:40:55;100920.06;;;8.27;100.00
13015;BME280;6573;57.696;11.950;2023-01-29T10:43:33;100916.66;;;8.40;100.00
13015;BME280;6573;57.696;11.950;2023-01-29T10:46:15;100952.66;;;8.64;100.00
13015;BME280;6573;57.696;11.950;2023-01-29T10:48:56;100947.38;;;8.61;100.00
13015;BME280;6573;57.696;11.950;2023-01-29T10:51:40;100933.31;;;8.47;100.00
13015;BME280;6573;57.696;11.950;2023-01-29T10:54:29;100929.84;;;8.48;100.00
13015;BME280;6573;57.696;11.950;2023-01-29T10:57:09;100919.38;;;8.53;100.00
13015;BME280;6573;57.696;11.950;2023-01-29T10:59:48;100888.75;;;8.48;100.00
13015;BME280;6573;57.696;11.950;2023-01-29T11:02:19;100884.34;;;8.44;100.00
13015;BME280;6573;57.696;11.950;2023-01-29T11:04:48;100865.06;;;8.35;100.00
13015;BME280;6573;57.696;11.950;2023-01-29T11:07:20;100883.44;;;8.39;100.00
13015;BME280;6573;57.696;11.950;2023-01-29T11:09:55;100826.41;;;8.04;100.00
13015;BME280;6573;57.696;11.950;2023-01-29T11:12:27;100863.38;;;8.46;100.00
13015;BME280;6573;57.696;11.950;2023-01-29T11:15:00;100842.38;;;8.37;100.00
13015;BME280;6573;57.696;11.950;2023-01-29T11:17:32;100877.44;;;8.57;100.00
13015;BME280;6573;57.696;11.950;2023-01-29T11:20:00;100869.59;;;8.57;100.00
13015;BME280;6573;57.696;11.950;2023-01-29T11:22:33;100866.91;;;8.48;100.00
13015;BME280;6573;57.696;11.950;2023-01-29T11:25:09;100859.94;;;8.50;100.00
13015;BME280;6573;57.696;11.950;2023-01-29T11:27:44;100844.16;;;8.44;100.00
13015;BME280;6573;57.696;11.950;2023-01-29T11:30:21;100844.19;;;8.47;100.00
13015;BME280;6573;57.696;11.950;2023-01-29T11:32:55;100823.00;;;8.20;100.00
13015;BME280;6573;57.696;11.950;2023-01-29T11:35:25;100809.09;;;8.27;100.00
13015;BME280;6573;57.696;11.950;2023-01-29T11:38:06;100854.66;;;8.47;100.00
13015;BME280;6573;57.696;11.950;2023-01-29T11:40:38;100848.53;;;8.42;100.00
13015;BME280;6573;57.696;11.950;2023-01-29T11:43:28;100844.19;;;8.52;100.00
13015;BME280;6573;57.696;11.950;2023-01-29T11:45:59;100846.84;;;8.53;100.00
13015;BME280;6573;57.696;11.950;2023-01-29T11:48:38;100833.66;;;8.39;100.00
13015;BME280;6573;57.696;11.950;2023-01-29T11:51:09;100830.16;;;8.39;100.00
13015;BME280;6573;57.696;11.950;2023-01-29T11:53:42;100804.78;;;8.32;100.00
13015;BME280;6573;57.696;11.950;2023-01-29T11:56:18;100835.44;;;8.51;100.00
13015;BME280;6573;57.696;11.950;2023-01-29T11:58:48;100823.22;;;8.52;100.00
13015;BME280;6573;57.696;11.950;2023-01-29T12:01:26;100825.00;;;8.54;100.00
13015;BME280;6573;57.696;11.950;2023-01-29T12:03:57;100818.84;;;8.49;100.00
13015;BME280;6573;57.696;11.950;2023-01-29T12:06:31;100816.25;;;8.52;100.00
13015;BME280;6573;57.696;11.950;2023-01-29T12:09:08;100789.94;;;8.37;100.00
13015;BME280;6573;57.696;11.950;2023-01-29T12:11:41;100796.94;;;8.35;100.00
13015;BME280;6573;57.696;11.950;2023-01-29T12:14:23;100788.94;;;8.20;100.00
13015;BME280;6573;57.696;11.950;2023-01-29T12:16:58;100793.50;;;8.46;100.00
13015;BME280;6573;57.696;11.950;2023-01-29T12:19:32;100782.00;;;8.26;100.00
13015;BME280;6573;57.696;11.950;2023-01-29T12:22:08;100798.69;;;8.39;100.00
13015;BME280;6573;57.696;11.950;2023-01-29T12:24:49;100794.34;;;8.38;100.00
13015;BME280;6573;57.696;11.950;2023-01-29T12:27:24;100789.94;;;8.37;100.00
13015;BME280;6573;57.696;11.950;2023-01-29T12:30:00;100749.66;;;8.23;100.00
13015;BME280;6573;57.696;11.950;2023-01-29T12:32:36;100782.91;;;8.30;100.00
13015;BME280;6573;57.696;11.950;2023-01-29T12:35:12;100770.72;;;8.35;100.00
13015;BME280;6573;57.696;11.950;2023-01-29T12:37:48;100762.00;;;8.42;100.00
13015;BME280;6573;57.696;11.950;2023-01-29T12:40:24;100719.06;;;8.22;100.00
13015;BME280;6573;57.696;11.950;2023-01-29T12:42:57;100730.59;;;8.48;100.00
13015;BME280;6573;57.696;11.950;2023-01-29T12:45:29;100737.56;;;8.46;100.00
13015;BME280;6573;57.696;11.950;2023-01-29T12:48:01;100713.06;;;8.35;100.00
13015;BME280;6573;57.696;11.950;2023-01-29T12:50:34;100727.09;;;8.43;100.00
13015;BME280;6573;57.696;11.950;2023-01-29T12:53:09;100733.22;;;8.48;100.00
13015;BME280;6573;57.696;11.950;2023-01-29T12:55:44;100693.84;;;8.33;100.00
13015;BME280;6573;57.696;11.950;2023-01-29T12:58:21;100714.03;;;8.57;100.00
13015;BME280;6573;57.696;11.950;2023-01-29T13:00:53;100709.63;;;8.54;100.00
13015;BME280;6573;57.696;11.950;2023-01-29T13:03:29;100679.03;;;8.47;100.00
13015;BME280;6573;57.696;11.950;2023-01-29T13:06:05;100693.03;;;8.57;100.00
13015;BME280;6573;57.696;11.950;2023-01-29T13:08:38;100697.41;;;8.56;100.00
13015;BME280;6573;57.696;11.950;2023-01-29T13:11:14;100667.59;;;8.27;100.00
13015;BME280;6573;57.696;11.950;2023-01-29T13:13:49;100660.53;;;8.21;100.00
13015;BME280;6573;57.696;11.950;2023-01-29T13:16:24;100682.50;;;8.37;100.00
13015;BME280;6573;57.696;11.950;2023-01-29T13:18:55;100645.66;;;8.10;100.00
13015;BME280;6573;57.696;11.950;2023-01-29T13:21:28;100637.81;;;8.13;100.00
13015;BME280;6573;57.696;11.950;2023-01-29T13:24:04;100675.50;;;8.37;100.00
13015;BME280;6573;57.696;11.950;2023-01-29T13:26:43;100653.56;;;8.16;100.00